KLPR

Details ICAO KLPR (LPR)
Name LORAIN CO RGNL
Region United States
Timezone America/New_York (UTC-5.0)
Plans Departing 6
Arriving 3
Stats Elevation 793 ft / 242 m (AMSL)
Location 41.344276° -82.177627°
Runways 1
Magnetic Variation 7.977° W
Sunrise 2017-12-10 12:45:23 UTC / 2017-12-10 07:45:23 Local
Sunset 2017-12-10 22:00:46 UTC / 2017-12-10 17:00:46 Local
Advertisement - Login to hide

Runways

ID Width Length Bearing (true) Bearing (mag) Surface Threshold Offset Overrun Length
07 98 ft / 30 m 4,993 ft / 1,522 m 64.93° 72.91° Asphalt 0 ft / 0 m 0 ft / 0 m
25 98 ft / 30 m 4,993 ft / 1,522 m 244.94° 252.92° Asphalt 0 ft / 0 m 0 ft / 0 m

Approach Navaids

Runway Type Ident Frequency Range Bearing (true) Bearing (mag) Slope Elevation
07 Localiser ILQG 111.70 MHz 18 nm / 33 km 64.93° 72.91° - 793 ft / 242 m (AMSL)
07 Glidescope ILQG 111.70 MHz 10 nm / 19 km 64.93° 72.91° 3.00° 792 ft / 241 m (AMSL)

Map

Weather


0- 5 10 15 20 25 30 35+ Temperature / ° C

Clouds and Precipitation
Forecast for 2017-12-11 00:00 UTC. Updated an hour ago

Ground ~20,000 ft ~40,000 ft Winds

METAR

KLPR 102353Z AUTO 24012KT 10SM OVC038 M02/M09 A2997 RMK AO2 SLP159 T10171089 11017 21033 53014

TAF

Not found

Frequencies

Recorded 121.42 MHz ASOS
Clearance 125.70 MHz CLEVELAND CLNC DEL
Unicom 122.70 MHz CTAF/UNICOM
Approach 126.35 MHz CLEVELAND APP/DEP
Warning: Do not use this data for real-world aviation or navigation. No guarantee of current accuracy is given.